Time;durP1;ratioP1;P1;durP2;ratioP2;P2;SDS_P1;SDS_P2;PMS_P1;PMS_P2;Temp;Humidity;BMP_temperature;BMP_pressure;BME280_temperature;BME280_humidity;BME280_pressure;Samples;Min_cycle;Max_cycle;Signal;HPM_P1;HPM_P2
2021/09/15 00:01:48;;;;;;;;;;;;;;;20.32;nan;100204.84;4977346;28;20027;-78
2021/09/15 00:04:13;;;;;;;6.20;5.13;;;;;;;20.29;nan;100199.94;4993056;28;19948;-77
2021/09/15 00:06:39;;;;;;;6.55;4.93;;;;;;;20.32;nan;100207.53;4976587;28;20034;-77
2021/09/15 00:09:04;;;;;;;6.53;5.20;;;;;;;20.25;nan;100198.72;4976135;28;20257;-77
2021/09/15 00:11:30;;;;;;;5.72;5.13;;;;;;;20.22;nan;100201.88;4992766;28;20019;-77
2021/09/15 00:13:55;;;;;;;5.70;4.68;;;;;;;20.20;nan;100201.25;4993884;28;20061;-77
2021/09/15 00:16:20;;;;;;;4.45;3.97;;;;;;;20.18;nan;100188.06;4990819;28;20019;-77
2021/09/15 00:18:46;;;;;;;4.75;4.00;;;;;;;20.15;nan;100196.56;4991300;28;20038;-77
2021/09/15 00:21:11;;;;;;;6.00;5.32;;;;;;;20.09;nan;100200.97;4974882;28;20023;-77
2021/09/15 00:23:36;;;;;;;4.57;4.05;;;;;;;20.13;nan;100187.91;4992011;28;20117;-78
2021/09/15 00:26:02;;;;;;;5.65;5.05;;;;;;;20.09;nan;100195.59;4992051;28;20471;-78
2021/09/15 00:28:27;;;;;;;6.50;5.55;;;;;;;20.04;nan;100197.28;4991862;28;20037;-78
2021/09/15 00:30:53;;;;;;;6.95;4.80;;;;;;;20.11;nan;100201.53;4992610;28;20027;-78
2021/09/15 00:33:18;;;;;;;8.75;5.60;;;;;;;20.19;nan;100188.88;4991421;28;20049;-78
2021/09/15 00:35:43;;;;;;;7.18;5.60;;;;;;;20.13;nan;100193.28;4991769;28;20032;-77
2021/09/15 00:38:08;;;;;;;5.85;5.25;;;;;;;20.04;nan;100192.72;4991533;28;20033;-78
2021/09/15 00:40:34;;;;;;;7.10;5.22;;;;;;;20.06;nan;100187.97;4989556;28;20034;-77
2021/09/15 00:42:59;;;;;;;7.10;5.68;;;;;;;20.14;nan;100176.13;4991615;28;20030;-77
2021/09/15 00:45:24;;;;;;;5.93;5.22;;;;;;;20.10;nan;100189.19;4973948;28;20278;-78
2021/09/15 00:47:50;;;;;;;5.88;4.85;;;;;;;20.14;nan;100182.31;4986983;28;20058;-78
2021/09/15 00:50:15;;;;;;;6.13;5.50;;;;;;;20.08;nan;100188.56;4990344;28;20081;-77
2021/09/15 00:52:41;;;;;;;6.38;5.10;;;;;;;20.10;nan;100185.69;4988706;28;20062;-77
2021/09/15 00:55:08;;;;;;;4.85;4.28;;;;;;;20.17;nan;100180.25;4992173;28;20037;-77
2021/09/15 00:57:33;;;;;;;5.38;4.53;;;;;;;20.17;nan;100174.88;4975230;28;20030;-78
2021/09/15 00:59:58;;;;;;;4.95;4.15;;;;;;;20.14;nan;100176.97;4995633;28;20117;-77
2021/09/15 01:02:24;;;;;;;4.93;4.38;;;;;;;20.09;nan;100174.13;4994489;28;20034;-78
2021/09/15 01:04:49;;;;;;;5.35;4.70;;;;;;;20.12;nan;100167.50;4995229;28;20530;-78
2021/09/15 01:07:15;;;;;;;4.28;3.75;;;;;;;20.12;nan;100167.50;4994565;28;20056;-78
2021/09/15 01:09:40;;;;;;;5.68;4.68;;;;;;;20.07;nan;100162.78;4996241;28;20032;-77
2021/09/15 01:12:13;;;;;;;6.40;4.10;;;;;;;20.04;nan;100160.53;4977461;28;20085;-78
2021/09/15 01:14:40;;;;;;;4.85;3.85;;;;;;;20.03;nan;100158.91;4991640;28;20053;-78
2021/09/15 01:17:05;;;;;;;5.30;4.25;;;;;;;20.02;nan;100159.97;4994827;28;20245;-78
2021/09/15 01:19:30;;;;;;;4.45;3.80;;;;;;;20.02;nan;100162.63;4976999;28;20026;-78
2021/09/15 01:21:57;;;;;;;5.20;4.43;;;;;;;20.03;nan;100168.81;4996080;28;20038;-78
2021/09/15 01:24:25;;;;;;;5.03;4.53;;;;;;;19.99;nan;100156.88;4995571;28;20054;-77
2021/09/15 01:26:51;;;;;;;3.90;3.50;;;;;;;19.97;nan;100167.81;4995127;28;20440;-77
2021/09/15 01:29:23;;;;;;;4.55;3.70;;;;;;;19.95;nan;100159.22;4994890;28;20034;-78
2021/09/15 01:32:06;;;;;;;5.30;4.80;;;;;;;19.98;nan;100155.25;4995572;28;20026;-78
2021/09/15 01:34:38;;;;;;;5.63;5.00;;;;;;;19.98;nan;100166.81;4994395;28;20036;-78
2021/09/15 01:37:05;;;;;;;5.22;4.47;;;;;;;19.98;nan;100157.94;4993263;28;20118;-77
2021/09/15 01:39:30;;;;;;;5.93;4.50;;;;;;;19.96;nan;100150.09;4993803;28;20030;-78
2021/09/15 01:42:03;;;;;;;5.47;4.57;;;;;;;19.92;nan;100148.91;4994854;28;20026;-77
2021/09/15 01:44:31;;;;;;;6.10;5.20;;;;;;;19.87;nan;100152.25;4987414;28;20445;-78
2021/09/15 01:47:00;;;;;;;5.45;4.57;;;;;;;19.88;nan;100153.91;4995273;28;20026;-78
2021/09/15 01:49:27;;;;;;;5.68;4.72;;;;;;;19.91;nan;100144.59;4988619;28;20018;-77
2021/09/15 01:51:52;;;;;;;5.20;4.43;;;;;;;19.88;nan;100150.41;4977716;28;20480;-77
2021/09/15 01:54:17;;;;;;;5.85;4.93;;;;;;;19.83;nan;100152.91;4994375;28;20033;-78
2021/09/15 01:56:43;;;;;;;5.20;4.70;;;;;;;19.81;nan;100153.16;4977968;28;20030;-77
2021/09/15 01:59:08;;;;;;;4.10;3.70;;;;;;;19.81;nan;100157.69;4994455;28;20069;-78
2021/09/15 02:01:33;;;;;;;3.95;3.50;;;;;;;19.82;nan;100159.31;4994896;28;20092;-78
2021/09/15 02:03:58;;;;;;;6.22;4.05;;;;;;;19.77;nan;100154.63;4994867;28;20027;-76
2021/09/15 02:06:24;;;;;;;5.50;4.43;;;;;;;19.75;nan;100150.53;4994680;28;20062;-78
2021/09/15 02:08:49;;;;;;;5.82;5.20;;;;;;;19.82;nan;100148.59;4995505;28;20298;-77
2021/09/15 02:11:14;;;;;;;9.15;5.50;;;;;;;19.83;nan;100153.75;4977011;28;20125;-78
2021/09/15 02:13:43;;;;;;;5.72;4.72;;;;;;;19.84;nan;100149.19;4976166;28;20026;-77
2021/09/15 02:16:08;;;;;;;6.45;5.38;;;;;;;19.81;nan;100149.66;4992580;28;20372;-78
2021/09/15 02:18:33;;;;;;;5.00;4.43;;;;;;;19.79;nan;100151.72;4994470;28;20022;-78
2021/09/15 02:20:59;;;;;;;6.50;5.53;;;;;;;19.72;nan;100143.75;4994655;28;20089;-78
2021/09/15 02:23:24;;;;;;;6.03;5.20;;;;;;;19.73;nan;100148.06;4977598;28;20100;-78
2021/09/15 02:25:49;;;;;;;5.05;4.55;;;;;;;19.73;nan;100150.72;4994509;28;20113;-77
2021/09/15 02:28:14;;;;;;;6.80;5.40;;;;;;;19.70;nan;100164.59;4994502;28;20053;-78
2021/09/15 02:30:40;;;;;;;6.38;5.47;;;;;;;19.72;nan;100157.97;4989945;28;20011;-77
2021/09/15 02:33:05;;;;;;;5.93;5.00;;;;;;;19.78;nan;100174.22;4993681;28;20038;-77
2021/09/15 02:35:31;;;;;;;7.15;5.00;;;;;;;19.82;nan;100168.19;4994483;28;20025;-77
2021/09/15 02:37:57;;;;;;;8.13;5.85;;;;;;;19.91;nan;100166.06;4993849;28;20034;-78
2021/09/15 02:40:22;;;;;;;9.48;7.25;;;;;;;19.99;nan;100167.63;4994098;28;20205;-77
2021/09/15 02:42:47;;;;;;;7.25;6.28;;;;;;;20.00;nan;100172.78;4993968;28;20503;-78
2021/09/15 02:45:13;;;;;;;9.45;6.90;;;;;;;19.99;nan;100152.31;4993172;28;20026;-78
2021/09/15 02:47:38;;;;;;;9.77;7.03;;;;;;;20.01;nan;100169.03;4993121;28;20029;-76
2021/09/15 02:50:03;;;;;;;7.50;6.60;;;;;;;20.03;nan;100163.44;4993286;28;20471;-78
2021/09/15 02:52:29;;;;;;;8.13;7.05;;;;;;;20.03;nan;100155.41;4992396;28;20113;-78
2021/09/15 02:54:54;;;;;;;9.27;7.50;;;;;;;19.98;nan;100160.63;4975904;28;20436;-78
2021/09/15 02:57:19;;;;;;;8.43;6.85;;;;;;;19.83;nan;100145.69;4974854;28;20049;-77
2021/09/15 02:59:44;;;;;;;9.60;7.60;;;;;;;19.74;nan;100144.34;4993609;28;20125;-78
2021/09/15 03:02:10;;;;;;;8.80;7.05;;;;;;;19.63;nan;100137.78;4993172;28;20018;-77
2021/09/15 03:04:35;;;;;;;9.40;7.50;;;;;;;19.62;nan;100141.53;4992791;28;20037;-78
2021/09/15 03:07:00;;;;;;;8.80;7.32;;;;;;;19.58;nan;100150.25;4992520;28;20069;-77
2021/09/15 03:09:26;;;;;;;7.75;6.95;;;;;;;19.51;nan;100142.25;4974409;28;20022;-78
2021/09/15 03:11:51;;;;;;;10.10;7.40;;;;;;;19.54;nan;100147.16;4992594;28;20030;-77
2021/09/15 03:14:16;;;;;;;9.35;8.35;;;;;;;19.57;nan;100149.44;4965971;28;20277;-78
2021/09/15 03:16:41;;;;;;;8.75;7.45;;;;;;;19.49;nan;100147.00;4987548;28;20027;-78
2021/09/15 03:19:07;;;;;;;12.02;10.00;;;;;;;19.57;nan;100141.38;4971006;28;20025;-77
2021/09/15 03:21:32;;;;;;;11.43;8.43;;;;;;;19.51;nan;100135.00;4983017;28;20120;-77
2021/09/15 03:23:57;;;;;;;12.80;8.05;;;;;;;19.50;nan;100130.69;4983866;28;20107;-78
2021/09/15 03:26:23;;;;;;;11.63;7.93;;;;;;;19.43;nan;100119.22;4992287;28;20569;-78
2021/09/15 03:28:48;;;;;;;11.38;7.07;;;;;;;19.43;nan;100118.41;4992726;28;20022;-77
2021/09/15 03:31:13;;;;;;;5.30;4.80;;;;;;;19.51;nan;100116.25;4973431;28;20398;-77
2021/09/15 03:33:39;;;;;;;5.53;5.03;;;;;;;19.47;nan;100123.09;4992110;28;20097;-78
2021/09/15 03:36:04;;;;;;;6.72;5.68;;;;;;;19.40;nan;100122.34;4991604;28;20035;-78
2021/09/15 03:38:29;;;;;;;8.07;6.20;;;;;;;19.39;nan;100130.59;4992545;28;20065;-78
2021/09/15 03:40:55;;;;;;;7.80;6.57;;;;;;;19.37;nan;100130.00;4993449;28;20034;-77
2021/09/15 03:43:20;;;;;;;6.68;5.85;;;;;;;19.40;nan;100126.88;4993054;28;20034;-78
2021/09/15 03:45:45;;;;;;;7.43;5.72;;;;;;;19.43;nan;100124.56;4994857;28;20105;-77
2021/09/15 03:48:10;;;;;;;8.52;6.20;;;;;;;19.47;nan;100109.69;4994842;28;20037;-77
2021/09/15 03:50:36;;;;;;;7.32;5.68;;;;;;;19.44;nan;100106.63;4989535;28;20037;-78
2021/09/15 03:53:01;;;;;;;7.45;6.00;;;;;;;19.39;nan;100098.44;4993029;28;20038;-78
2021/09/15 03:55:26;;;;;;;8.00;6.03;;;;;;;19.42;nan;100088.06;4991022;28;20370;-77
2021/09/15 03:57:52;;;;;;;6.95;6.07;;;;;;;19.42;nan;100095.28;4975581;28;20034;-77
2021/09/15 04:00:17;;;;;;;6.28;5.20;;;;;;;19.43;nan;100091.59;4989836;28;20085;-77
2021/09/15 04:02:42;;;;;;;6.78;5.30;;;;;;;19.39;nan;100091.19;4992921;28;20026;-78
2021/09/15 04:05:08;;;;;;;7.15;5.82;;;;;;;19.33;nan;100093.94;4992351;28;20546;-77
2021/09/15 04:07:33;;;;;;;6.43;5.20;;;;;;;19.30;nan;100106.72;4974519;28;20018;-77
2021/09/15 04:09:58;;;;;;;5.95;5.25;;;;;;;19.31;nan;100112.94;4992010;28;20032;-78
2021/09/15 04:12:24;;;;;;;5.85;5.05;;;;;;;19.30;nan;100112.09;4992803;28;20022;-77
2021/09/15 04:14:49;;;;;;;6.10;5.50;;;;;;;19.28;nan;100114.19;4991450;28;20109;-77
2021/09/15 04:17:14;;;;;;;7.03;5.30;;;;;;;19.23;nan;100119.38;4973305;28;20046;-78
2021/09/15 04:19:39;;;;;;;6.32;4.80;;;;;;;19.28;nan;100118.72;4992680;28;20050;-78
2021/09/15 04:22:07;;;;;;;6.05;5.32;;;;;;;19.29;nan;100126.53;4992044;28;20526;-77
2021/09/15 04:32:25;;;;;;;6.93;5.60;;;;;;;19.34;nan;100133.94;4992651;28;20442;-77
2021/09/15 04:34:51;;;;;;;7.18;5.57;;;;;;;19.35;nan;100134.75;4995012;28;20042;-77
2021/09/15 04:37:16;;;;;;;5.20;4.70;;;;;;;19.38;nan;100142.34;4994157;28;20037;-78
2021/09/15 04:39:41;;;;;;;6.15;4.43;;;;;;;19.38;nan;100143.19;4994357;28;20061;-76
2021/09/15 04:42:07;;;;;;;5.90;4.90;;;;;;;19.40;nan;100142.94;4978603;28;20304;-79
2021/09/15 04:44:32;;;;;;;5.22;4.70;;;;;;;19.45;nan;100149.31;4978518;28;20105;-78
2021/09/15 04:46:57;;;;;;;8.45;6.32;;;;;;;19.43;nan;100153.25;4995542;28;20030;-78
2021/09/15 04:49:23;;;;;;;8.70;6.13;;;;;;;19.46;nan;100155.50;4977860;28;20045;-78
2021/09/15 04:51:48;;;;;;;8.63;7.13;;;;;;;19.51;nan;100156.47;4995092;28;20082;-79
2021/09/15 04:54:13;;;;;;;7.47;6.25;;;;;;;19.42;nan;100151.59;4994370;28;20026;-78
2021/09/15 04:56:38;;;;;;;9.40;6.75;;;;;;;19.42;nan;100160.47;4995467;28;20034;-79
2021/09/15 04:59:04;;;;;;;9.25;6.53;;;;;;;19.44;nan;100162.94;4995740;28;20030;-78
2021/09/15 05:01:29;;;;;;;7.63;6.15;;;;;;;19.42;nan;100157.78;4995174;28;20112;-79
2021/09/15 05:03:54;;;;;;;8.00;6.37;;;;;;;19.49;nan;100155.88;4958178;28;1078192;-78
2021/09/15 05:06:20;;;;;;;8.88;6.30;;;;;;;19.54;nan;100155.22;4999269;28;20497;-78
2021/09/15 05:08:45;;;;;;;10.60;6.73;;;;;;;19.49;nan;100147.00;5000149;28;20502;-78
2021/09/15 05:11:10;;;;;;;8.65;7.03;;;;;;;19.58;nan;100150.25;4982794;28;20277;-78
2021/09/15 05:13:36;;;;;;;8.77;6.80;;;;;;;19.50;nan;100151.34;4997425;28;20487;-78
2021/09/15 05:16:01;;;;;;;6.72;6.03;;;;;;;19.45;nan;100157.38;4983121;28;20061;-78
2021/09/15 05:18:26;;;;;;;8.85;7.28;;;;;;;19.51;nan;100153.78;4998578;28;20065;-79
2021/09/15 05:20:52;;;;;;;10.93;8.35;;;;;;;19.55;nan;100153.38;4999505;28;20570;-78
2021/09/15 05:23:18;;;;;;;8.60;7.45;;;;;;;19.48;nan;100159.59;4998337;28;20069;-79
2021/09/15 05:25:43;;;;;;;10.95;7.50;;;;;;;19.48;nan;100153.41;4998987;28;20178;-77
2021/09/15 05:28:08;;;;;;;10.18;7.60;;;;;;;19.42;nan;100149.72;4995236;28;20029;-78
2021/09/15 05:30:33;;;;;;;8.40;7.50;;;;;;;19.37;nan;100160.31;4999148;28;20026;-77
2021/09/15 05:32:59;;;;;;;9.77;7.47;;;;;;;19.34;nan;100160.75;4996322;28;20044;-79
2021/09/15 05:35:24;;;;;;;10.35;7.60;;;;;;;19.31;nan;100156.66;4998262;28;20050;-78
2021/09/15 05:37:49;;;;;;;9.73;7.32;;;;;;;19.24;nan;100157.75;4996533;28;20061;-78
2021/09/15 05:40:15;;;;;;;9.45;7.57;;;;;;;19.23;nan;100156.91;4979658;28;20022;-78
2021/09/15 05:42:40;;;;;;;7.95;7.15;;;;;;;19.23;nan;100164.94;4996428;28;20033;-79
2021/09/15 05:45:06;;;;;;;9.73;6.97;;;;;;;19.18;nan;100163.97;4996439;28;20034;-78
2021/09/15 05:47:32;;;;;;;9.50;7.43;;;;;;;19.21;nan;100172.41;4995735;28;20022;-78
2021/09/15 05:49:59;;;;;;;9.73;7.13;;;;;;;19.18;nan;100178.16;4993440;28;20482;-79
2021/09/15 05:52:24;;;;;;;11.32;7.75;;;;;;;19.15;nan;100175.94;4996769;28;20026;-78
2021/09/15 05:54:50;;;;;;;11.00;7.00;;;;;;;19.14;nan;100182.34;4996289;28;20312;-79
2021/09/15 05:57:15;;;;;;;8.80;7.45;;;;;;;19.13;nan;100186.03;4995457;28;20037;-79
2021/09/15 05:59:41;;;;;;;10.25;7.07;;;;;;;19.07;nan;100182.38;4994849;28;20034;-78
2021/09/15 06:02:06;;;;;;;9.27;7.03;;;;;;;19.09;nan;100184.81;4993631;28;20041;-79
2021/09/15 06:04:31;;;;;;;9.38;7.00;;;;;;;19.07;nan;100187.75;4994543;28;20026;-79
2021/09/15 06:06:57;;;;;;;9.35;6.85;;;;;;;19.09;nan;100188.34;4978102;28;20026;-78
2021/09/15 06:09:22;;;;;;;9.13;7.05;;;;;;;19.04;nan;100177.47;4995676;28;20491;-78
2021/09/15 06:11:47;;;;;;;8.13;6.85;;;;;;;19.07;nan;100186.94;4996556;28;20495;-79
2021/09/15 06:14:13;;;;;;;10.27;7.60;;;;;;;19.08;nan;100194.72;4995816;28;20034;-79
2021/09/15 06:16:38;;;;;;;10.77;7.20;;;;;;;19.13;nan;100190.59;4994760;28;20553;-79
2021/09/15 06:19:04;;;;;;;9.60;6.95;;;;;;;19.13;nan;100201.31;4995041;28;20037;-77
2021/09/15 06:21:29;;;;;;;8.20;6.97;;;;;;;19.09;nan;100198.22;4977627;28;20026;-79
2021/09/15 06:23:54;;;;;;;9.45;6.97;;;;;;;19.06;nan;100191.44;4993519;28;20034;-79
2021/09/15 06:26:24;;;;;;;9.20;6.70;;;;;;;19.14;nan;100192.22;4987082;28;20026;-79
2021/09/15 06:28:51;;;;;;;9.98;7.10;;;;;;;19.09;nan;100193.72;4986541;28;20081;-79
2021/09/15 06:31:16;;;;;;;10.13;7.60;;;;;;;19.14;nan;100197.59;4987868;28;20042;-79
2021/09/15 06:33:41;;;;;;;;;;;;;;;19.08;nan;100196.59;4988851;28;20041;-79
2021/09/15 06:36:07;;;;;;;11.33;7.70;;;;;;;19.13;nan;100198.63;4988021;28;20108;-79
2021/09/15 06:38:32;;;;;;;;;;;;;;;19.08;nan;100194.72;4999733;28;20346;-80
2021/09/15 06:40:57;;;;;;;9.60;7.37;;;;;;;19.09;nan;100191.03;4988749;28;19922;-80
2021/09/15 06:43:23;;;;;;;8.98;7.60;;;;;;;19.10;nan;100197.22;4973401;28;20682;-80
2021/09/15 06:45:48;;;;;;;12.15;8.05;;;;;;;19.10;nan;100203.38;4987921;28;20486;-80
2021/09/15 06:48:14;;;;;;;9.93;8.13;;;;;;;19.09;nan;100201.75;4992649;28;20034;-79
2021/09/15 06:50:39;;;;;;;10.35;7.45;;;;;;;19.06;nan;100207.53;4994763;28;20034;-81
2021/09/15 06:53:05;;;;;;;10.25;8.45;;;;;;;19.09;nan;100206.25;4974576;28;20026;-80
2021/09/15 06:55:30;;;;;;;11.55;8.75;;;;;;;19.06;nan;100206.72;4971827;28;20037;-81
2021/09/15 06:57:55;;;;;;;12.80;8.63;;;;;;;18.99;nan;100204.06;4992710;28;20117;-80
2021/09/15 07:00:21;;;;;;;8.90;7.43;;;;;;;19.14;nan;100211.81;4986920;28;20418;-80
2021/09/15 07:02:47;;;;;;;7.90;7.10;;;;;;;19.13;nan;100215.53;4975784;28;20398;-79
2021/09/15 07:05:13;;;;;;;9.40;7.72;;;;;;;19.13;nan;100204.81;4994687;28;20034;-79
2021/09/15 07:07:38;;;;;;;9.65;7.50;;;;;;;19.07;nan;100200.31;4999756;28;20109;-78
2021/09/15 07:10:06;;;;;;;8.15;7.18;;;;;;;19.27;nan;100201.00;4998468;28;20419;-80
2021/09/15 07:12:32;;;;;;;6.47;5.60;;;;;;;19.24;nan;100204.13;4999087;28;20418;-78
2021/09/15 07:14:57;;;;;;;6.80;5.57;;;;;;;19.29;nan;100198.94;4996480;28;20414;-79
2021/09/15 07:17:22;;;;;;;6.30;5.10;;;;;;;19.39;nan;100205.66;4999032;28;20402;-80
2021/09/15 07:19:48;;;;;;;7.75;4.97;;;;;;;19.29;nan;100209.66;4999890;28;20010;-79
2021/09/15 07:22:13;;;;;;;6.43;5.20;;;;;;;19.31;nan;100206.75;4982000;28;20475;-81
2021/09/15 07:24:38;;;;;;;6.68;5.15;;;;;;;19.30;nan;100208.59;4981615;28;20030;-78
2021/09/15 07:27:04;;;;;;;7.28;5.25;;;;;;;19.30;nan;100213.97;4977418;28;20026;-78
2021/09/15 07:29:29;;;;;;;6.30;4.35;;;;;;;19.29;nan;100212.34;4959213;28;20030;-78
2021/09/15 07:31:54;;;;;;;6.63;4.47;;;;;;;19.29;nan;100200.78;4984678;28;20018;-79
2021/09/15 07:34:20;;;;;;;5.47;4.25;;;;;;;19.31;nan;100207.56;4996908;28;20042;-78
2021/09/15 07:36:45;;;;;;;7.90;4.13;;;;;;;19.29;nan;100212.34;4992194;28;20046;-78
2021/09/15 07:39:10;;;;;;;5.70;3.40;;;;;;;19.23;nan;100205.16;4996259;28;20620;-78
2021/09/15 07:41:36;;;;;;;5.22;3.03;;;;;;;19.21;nan;100211.75;4996652;28;20029;-78
2021/09/15 07:44:01;;;;;;;4.15;3.33;;;;;;;19.28;nan;100210.69;4997410;28;20030;-78
2021/09/15 07:46:26;;;;;;;6.53;3.25;;;;;;;19.35;nan;100209.81;4997021;28;20553;-78
2021/09/15 07:48:53;;;;;;;4.55;3.00;;;;;;;19.37;nan;100210.44;4997102;28;20042;-79
2021/09/15 07:51:19;;;;;;;5.82;3.08;;;;;;;19.39;nan;100214.53;4996369;28;20022;-79
2021/09/15 07:53:44;;;;;;;4.28;2.60;;;;;;;19.40;nan;100212.66;4996349;28;20034;-79
2021/09/15 07:56:10;;;;;;;4.28;2.75;;;;;;;19.47;nan;100213.44;4996986;28;20030;-79
2021/09/15 07:58:36;;;;;;;3.58;2.50;;;;;;;19.55;nan;100217.72;4997348;28;20026;-78
2021/09/15 08:01:01;;;;;;;4.80;2.88;;;;;;;19.63;nan;100217.44;4996312;28;20085;-79
2021/09/15 08:03:26;;;;;;;5.90;2.75;;;;;;;19.68;nan;100223.81;4997409;28;20073;-79
2021/09/15 08:05:54;;;;;;;5.85;3.00;;;;;;;19.63;nan;100223.63;4995692;28;20050;-78
2021/09/15 08:08:20;;;;;;;4.45;2.40;;;;;;;19.55;nan;100221.22;4996910;28;20257;-78
2021/09/15 08:10:45;;;;;;;6.38;2.55;;;;;;;19.52;nan;100227.84;4982131;28;20645;-77
2021/09/15 08:13:11;;;;;;;4.82;2.35;;;;;;;19.47;nan;100221.47;4999656;28;20399;-78
2021/09/15 08:15:36;;;;;;;3.45;2.08;;;;;;;19.38;nan;100233.50;4996014;28;20022;-78
2021/09/15 08:18:01;;;;;;;5.68;2.33;;;;;;;19.33;nan;100234.19;5000361;28;20027;-78
2021/09/15 08:20:27;;;;;;;5.25;2.38;;;;;;;19.33;nan;100238.69;4999753;28;20538;-79
2021/09/15 08:22:52;;;;;;;5.43;2.35;;;;;;;19.28;nan;100236.66;4999129;28;20034;-78
2021/09/15 08:25:18;;;;;;;4.07;2.30;;;;;;;19.17;nan;100234.69;5000812;28;20019;-79
2021/09/15 08:27:43;;;;;;;3.42;2.05;;;;;;;19.07;nan;100235.16;4980741;28;20019;-78
2021/09/15 08:30:10;;;;;;;2.97;2.00;;;;;;;19.09;nan;100223.19;4997854;28;20439;-79
2021/09/15 08:32:36;;;;;;;3.85;1.90;;;;;;;19.09;nan;100228.56;4988103;28;20030;-80
2021/09/15 08:35:02;;;;;;;3.08;2.05;;;;;;;19.08;nan;100231.44;5006682;28;20329;-80
2021/09/15 08:37:32;;;;;;;3.50;2.10;;;;;;;19.09;nan;100231.22;4991443;28;20030;-80
2021/09/15 08:39:57;;;;;;;2.78;1.83;;;;;;;19.12;nan;100243.38;5005797;28;20018;-80
2021/09/15 08:42:23;;;;;;;4.20;2.80;;;;;;;19.09;nan;100250.00;5006531;28;20026;-79
2021/09/15 08:44:48;;;;;;;6.88;3.00;;;;;;;19.12;nan;100254.09;5002459;28;20329;-79
2021/09/15 08:47:14;;;;;;;4.45;2.83;;;;;;;19.10;nan;100248.94;4987348;28;20029;-79
2021/09/15 08:49:40;;;;;;;3.33;2.20;;;;;;;19.17;nan;100251.59;5003009;28;20030;-80
2021/09/15 08:52:05;;;;;;;3.97;2.60;;;;;;;19.22;nan;100249.09;5005398;28;20084;-80
2021/09/15 08:54:31;;;;;;;5.38;3.45;;;;;;;19.25;nan;100247.84;5006192;28;20104;-80
2021/09/15 08:56:56;;;;;;;3.53;2.60;;;;;;;19.31;nan;100242.44;4990868;28;20033;-80
2021/09/15 08:59:21;;;;;;;4.20;2.65;;;;;;;19.45;nan;100243.19;4992234;28;20038;-80
2021/09/15 09:01:46;;;;;;;4.70;2.63;;;;;;;19.53;nan;100250.94;5002848;28;20026;-81
2021/09/15 09:04:14;;;;;;;4.82;3.40;;;;;;;19.63;nan;100242.41;5001566;28;20093;-78
2021/09/15 09:06:39;;;;;;;6.07;3.55;;;;;;;19.65;nan;100236.84;5005430;28;20037;-79
2021/09/15 09:09:05;;;;;;;5.85;3.53;;;;;;;19.64;nan;100235.16;5005894;28;20027;-78
2021/09/15 09:11:33;;;;;;;4.90;3.33;;;;;;;19.69;nan;100230.03;5003456;28;20022;-78
2021/09/15 09:14:01;;;;;;;3.63;3.15;;;;;;;19.69;nan;100240.75;5002443;28;20114;-78
2021/09/15 09:16:42;;;;;;;6.45;4.25;;;;;;;19.76;nan;100238.84;5004903;28;20290;-77
2021/09/15 09:19:10;;;;;;;5.97;4.20;;;;;;;19.76;nan;100241.53;4988126;28;20050;-77
2021/09/15 09:21:38;;;;;;;6.45;3.88;;;;;;;19.73;nan;100237.44;5004273;28;20019;-78
2021/09/15 09:24:05;;;;;;;8.88;4.50;;;;;;;19.75;nan;100233.69;5002510;28;20022;-77
2021/09/15 09:26:49;;;;;;;7.03;4.90;;;;;;;19.72;nan;100232.28;5002123;28;20026;-77
2021/09/15 09:29:29;;;;;;;6.82;4.85;;;;;;;19.73;nan;100226.69;4987997;28;20031;-80
2021/09/15 09:31:56;;;;;;;7.47;5.00;;;;;;;19.82;nan;100234.44;4986883;28;20027;-77
2021/09/15 09:34:24;;;;;;;7.68;5.25;;;;;;;19.87;nan;100231.94;5001373;28;20022;-79
2021/09/15 09:37:20;;;;;;;7.68;5.35;;;;;;;19.85;nan;100234.00;5001520;28;20034;-78
2021/09/15 09:39:51;;;;;;;8.15;5.40;;;;;;;19.92;nan;100238.25;4984845;28;20065;-78
2021/09/15 09:42:23;;;;;;;6.50;4.63;;;;;;;19.82;nan;100235.28;5002744;28;20086;-78
2021/09/15 09:45:12;;;;;;;8.05;5.97;;;;;;;19.78;nan;100234.06;5001528;28;20049;-79
2021/09/15 09:47:38;;;;;;;8.70;5.03;;;;;;;19.56;nan;100233.59;4985301;28;20034;-78
2021/09/15 09:50:10;;;;;;;5.05;4.03;;;;;;;19.49;nan;100238.19;4999726;28;20090;-78
2021/09/15 09:53:10;;;;;;;5.45;4.40;;;;;;;19.49;nan;100227.47;5003462;28;20061;-79
2021/09/15 09:55:37;;;;;;;8.53;5.33;;;;;;;19.51;nan;100225.38;4917697;29;20035;-79
2021/09/15 09:58:04;;;;;;;5.60;4.63;;;;;;;19.47;nan;100235.72;4985385;28;20281;-78
2021/09/15 10:00:31;;;;;;;6.20;5.10;;;;;;;19.49;nan;100228.28;4983533;28;20030;-79
2021/09/15 10:03:03;;;;;;;5.78;5.10;;;;;;;19.47;nan;100225.00;4999477;28;20373;-79
2021/09/15 10:05:28;;;;;;;8.30;5.35;;;;;;;19.49;nan;100222.09;4983711;28;20018;-79
2021/09/15 10:07:53;;;;;;;6.70;4.97;;;;;;;19.53;nan;100224.13;4982834;28;20097;-80
2021/09/15 10:10:20;;;;;;;7.00;5.72;;;;;;;19.57;nan;100224.53;4997882;28;20022;-79
2021/09/15 10:12:49;;;;;;;7.45;4.80;;;;;;;19.56;nan;100220.19;4998537;28;20049;-80
2021/09/15 10:15:15;;;;;;;8.88;4.97;;;;;;;19.62;nan;100222.00;4997373;28;20031;-80
2021/09/15 10:17:52;;;;;;;6.43;5.00;;;;;;;19.67;nan;100222.16;4991613;28;20256;-81
2021/09/15 10:20:27;;;;;;;4.68;4.18;;;;;;;19.58;nan;100226.16;4999364;28;20022;-81
2021/09/15 10:22:52;;;;;;;6.07;4.22;;;;;;;19.70;nan;100235.16;4999408;28;20025;-82
2021/09/15 10:25:33;;;;;;;6.70;3.90;;;;;;;19.70;nan;100221.75;4981270;28;20050;-80
2021/09/15 10:28:01;;;;;;;4.88;3.42;;;;;;;19.70;nan;100221.75;4990687;28;20121;-80
2021/09/15 10:30:42;;;;;;;5.18;4.22;;;;;;;19.75;nan;100220.28;5000530;28;20046;-81
2021/09/15 10:33:36;;;;;;;6.07;3.50;;;;;;;19.70;nan;100219.06;4998971;28;20640;-81
2021/09/15 10:36:37;;;;;;;4.78;3.30;;;;;;;19.80;nan;100220.44;4999075;28;20098;-80
2021/09/15 10:39:03;;;;;;;4.40;3.40;;;;;;;19.82;nan;100229.09;4977748;28;20415;-80
2021/09/15 10:41:32;;;;;;;5.38;3.47;;;;;;;19.87;nan;100216.66;4991595;28;20026;-80
2021/09/15 10:44:05;;;;;;;5.57;3.40;;;;;;;19.95;nan;100220.94;4999240;28;20076;-79
2021/09/15 10:46:31;;;;;;;4.50;3.10;;;;;;;19.93;nan;100217.66;4992052;28;20022;-80
2021/09/15 10:49:18;;;;;;;4.75;3.50;;;;;;;20.03;nan;100211.75;4991026;28;20034;-80
2021/09/15 10:51:43;;;;;;;5.60;3.33;;;;;;;20.01;nan;100219.22;4993448;28;20037;-79
2021/09/15 10:54:51;;;;;;;5.05;3.50;;;;;;;20.08;nan;100214.59;4999969;28;20026;-79
2021/09/15 10:57:17;;;;;;;4.70;3.30;;;;;;;20.20;nan;100209.31;4989791;28;20062;-79
2021/09/15 10:59:56;;;;;;;7.07;3.85;;;;;;;20.25;nan;100207.59;4999246;28;20026;-80
2021/09/15 11:02:33;;;;;;;6.25;3.80;;;;;;;20.41;nan;100208.88;4999222;28;20041;-80
2021/09/15 11:05:19;;;;;;;5.47;4.00;;;;;;;20.51;nan;100206.47;5000037;28;20034;-80
2021/09/15 11:07:48;;;;;;;4.43;3.83;;;;;;;20.61;nan;100203.28;4991532;28;20026;-80
2021/09/15 11:10:34;;;;;;;5.88;3.83;;;;;;;20.70;nan;100201.94;4999475;28;20053;-80
2021/09/15 11:13:01;;;;;;;4.28;3.67;;;;;;;20.67;nan;100205.09;4982043;28;20026;-79
2021/09/15 11:15:29;;;;;;;5.63;4.30;;;;;;;20.69;nan;100199.47;4988126;28;20025;-80
2021/09/15 11:17:55;;;;;;;5.97;4.20;;;;;;;20.84;nan;100205.28;4980609;28;20054;-80
2021/09/15 11:20:21;;;;;;;5.90;3.70;;;;;;;20.98;nan;100201.34;4979218;28;20026;-80
2021/09/15 11:22:47;;;;;;;5.60;4.13;;;;;;;21.04;nan;100191.53;4975768;28;20033;-80
2021/09/15 11:25:21;;;;;;;5.20;4.15;;;;;;;21.13;nan;100186.66;4992456;28;20090;-80
2021/09/15 11:28:05;;;;;;;5.13;4.28;;;;;;;21.32;nan;100198.19;4997349;28;20076;-81
2021/09/15 11:30:31;;;;;;;5.00;4.10;;;;;;;21.35;nan;100187.75;4990520;28;20430;-80
2021/09/15 11:33:00;;;;;;;6.65;4.38;;;;;;;21.44;nan;100190.97;4990868;28;20033;-79
2021/09/15 11:35:25;;;;;;;5.70;4.50;;;;;;;21.38;nan;100189.16;4995929;28;20045;-80
2021/09/15 11:37:51;;;;;;;5.90;4.07;;;;;;;21.39;nan;100194.34;4984486;28;20034;-81
2021/09/15 11:40:16;;;;;;;5.57;4.70;;;;;;;21.42;nan;100193.88;4980872;28;20410;-80
2021/09/15 11:42:42;;;;;;;5.50;3.95;;;;;;;21.38;nan;100186.47;4992495;28;20521;-80
2021/09/15 11:45:22;;;;;;;5.30;4.40;;;;;;;21.27;nan;100195.38;4993356;28;20033;-80
2021/09/15 11:47:53;;;;;;;7.45;4.38;;;;;;;21.34;nan;100186.13;4975578;28;20057;-79
2021/09/15 11:50:18;;;;;;;;;;;;;;;21.33;nan;100189.88;4997412;28;20023;-80